sensor_id;sensor_type;location;lat;lon;timestamp;P1;durP1;ratioP1;P2;durP2;ratioP2
35225;SDS011;21813;49.686;21.766;2022-08-05T00:14:34;11.93;;;7.50;;
35225;SDS011;21813;49.686;21.766;2022-08-05T00:21:56;11.43;;;7.43;;
35225;SDS011;21813;49.686;21.766;2022-08-05T00:35:05;9.63;;;7.15;;
35225;SDS011;21813;49.686;21.766;2022-08-05T00:37:39;11.70;;;7.22;;
35225;SDS011;21813;49.686;21.766;2022-08-05T00:40:05;13.85;;;7.68;;
35225;SDS011;21813;49.686;21.766;2022-08-05T00:42:33;12.00;;;7.75;;
35225;SDS011;21813;49.686;21.766;2022-08-05T00:45:16;12.55;;;8.00;;
35225;SDS011;21813;49.686;21.766;2022-08-05T00:47:45;11.00;;;7.82;;
35225;SDS011;21813;49.686;21.766;2022-08-05T00:50:11;10.00;;;7.20;;
35225;SDS011;21813;49.686;21.766;2022-08-05T00:52:38;9.48;;;7.25;;
35225;SDS011;21813;49.686;21.766;2022-08-05T00:55:03;12.10;;;8.05;;
35225;SDS011;21813;49.686;21.766;2022-08-05T00:57:37;12.82;;;7.93;;
35225;SDS011;21813;49.686;21.766;2022-08-05T01:00:16;10.80;;;7.85;;
35225;SDS011;21813;49.686;21.766;2022-08-05T01:02:41;12.27;;;8.13;;
35225;SDS011;21813;49.686;21.766;2022-08-05T01:05:10;12.05;;;8.20;;
35225;SDS011;21813;49.686;21.766;2022-08-05T01:08:16;12.50;;;7.85;;
35225;SDS011;21813;49.686;21.766;2022-08-05T01:11:06;14.27;;;8.65;;
35225;SDS011;21813;49.686;21.766;2022-08-05T01:14:10;10.77;;;8.30;;
35225;SDS011;21813;49.686;21.766;2022-08-05T01:17:12;12.55;;;8.60;;
35225;SDS011;21813;49.686;21.766;2022-08-05T01:20:29;14.07;;;8.77;;
35225;SDS011;21813;49.686;21.766;2022-08-05T01:23:10;13.63;;;8.23;;
35225;SDS011;21813;49.686;21.766;2022-08-05T01:31:38;21.40;;;8.32;;
35225;SDS011;21813;49.686;21.766;2022-08-05T01:34:27;20.63;;;10.13;;
35225;SDS011;21813;49.686;21.766;2022-08-05T01:37:01;11.30;;;8.65;;
35225;SDS011;21813;49.686;21.766;2022-08-05T01:39:39;14.18;;;8.85;;
35225;SDS011;21813;49.686;21.766;2022-08-05T01:42:12;9.48;;;6.95;;
35225;SDS011;21813;49.686;21.766;2022-08-05T01:44:41;10.35;;;7.93;;
35225;SDS011;21813;49.686;21.766;2022-08-05T01:47:08;16.00;;;7.75;;
35225;SDS011;21813;49.686;21.766;2022-08-05T01:49:41;11.02;;;8.18;;
35225;SDS011;21813;49.686;21.766;2022-08-05T01:52:18;12.73;;;7.38;;
35225;SDS011;21813;49.686;21.766;2022-08-05T01:54:58;9.73;;;7.32;;
35225;SDS011;21813;49.686;21.766;2022-08-05T01:57:32;13.95;;;7.30;;
35225;SDS011;21813;49.686;21.766;2022-08-05T02:00:04;18.38;;;8.02;;
35225;SDS011;21813;49.686;21.766;2022-08-05T02:02:33;10.55;;;7.30;;
35225;SDS011;21813;49.686;21.766;2022-08-05T02:05:03;12.27;;;7.90;;
35225;SDS011;21813;49.686;21.766;2022-08-05T02:07:36;11.77;;;7.85;;
35225;SDS011;21813;49.686;21.766;2022-08-05T02:10:08;10.93;;;7.80;;
35225;SDS011;21813;49.686;21.766;2022-08-05T02:18:25;11.18;;;8.77;;
35225;SDS011;21813;49.686;21.766;2022-08-05T02:21:16;16.27;;;8.60;;
35225;SDS011;21813;49.686;21.766;2022-08-05T02:23:52;12.95;;;8.23;;
35225;SDS011;21813;49.686;21.766;2022-08-05T02:26:45;14.50;;;8.18;;
35225;SDS011;21813;49.686;21.766;2022-08-05T02:29:35;13.48;;;9.05;;
35225;SDS011;21813;49.686;21.766;2022-08-05T02:32:51;11.88;;;8.52;;
35225;SDS011;21813;49.686;21.766;2022-08-05T02:35:44;10.80;;;8.30;;
35225;SDS011;21813;49.686;21.766;2022-08-05T02:39:48;12.93;;;8.38;;
35225;SDS011;21813;49.686;21.766;2022-08-05T02:43:14;14.18;;;8.90;;
35225;SDS011;21813;49.686;21.766;2022-08-05T02:46:22;15.18;;;9.68;;
35225;SDS011;21813;49.686;21.766;2022-08-05T02:52:50;8.27;;;6.40;;
35225;SDS011;21813;49.686;21.766;2022-08-05T02:55:19;13.07;;;9.75;;
35225;SDS011;21813;49.686;21.766;2022-08-05T02:57:46;21.70;;;9.93;;
35225;SDS011;21813;49.686;21.766;2022-08-05T03:06:12;16.50;;;8.82;;
35225;SDS011;21813;49.686;21.766;2022-08-05T03:08:42;13.43;;;9.00;;
35225;SDS011;21813;49.686;21.766;2022-08-05T03:11:17;10.82;;;8.93;;
35225;SDS011;21813;49.686;21.766;2022-08-05T03:13:49;12.35;;;8.68;;
35225;SDS011;21813;49.686;21.766;2022-08-05T03:16:16;11.43;;;9.00;;
35225;SDS011;21813;49.686;21.766;2022-08-05T03:19:03;15.45;;;9.13;;
35225;SDS011;21813;49.686;21.766;2022-08-05T03:21:29;9.85;;;8.82;;
35225;SDS011;21813;49.686;21.766;2022-08-05T03:24:05;12.60;;;8.88;;
35225;SDS011;21813;49.686;21.766;2022-08-05T03:26:32;12.80;;;9.25;;
35225;SDS011;21813;49.686;21.766;2022-08-05T03:28:58;16.65;;;8.90;;
35225;SDS011;21813;49.686;21.766;2022-08-05T03:31:25;11.30;;;8.98;;
35225;SDS011;21813;49.686;21.766;2022-08-05T03:37:57;11.85;;;8.93;;
35225;SDS011;21813;49.686;21.766;2022-08-05T03:40:32;15.00;;;9.82;;
35225;SDS011;21813;49.686;21.766;2022-08-05T03:43:01;12.90;;;10.02;;
35225;SDS011;21813;49.686;21.766;2022-08-05T03:45:32;14.70;;;9.97;;
35225;SDS011;21813;49.686;21.766;2022-08-05T03:47:58;15.27;;;9.18;;
35225;SDS011;21813;49.686;21.766;2022-08-05T03:59:12;12.70;;;9.07;;
35225;SDS011;21813;49.686;21.766;2022-08-05T04:01:44;14.98;;;9.57;;
35225;SDS011;21813;49.686;21.766;2022-08-05T04:04:15;11.95;;;8.43;;
35225;SDS011;21813;49.686;21.766;2022-08-05T04:06:42;11.70;;;9.38;;
35225;SDS011;21813;49.686;21.766;2022-08-05T04:09:34;13.48;;;9.27;;
35225;SDS011;21813;49.686;21.766;2022-08-05T04:12:10;10.70;;;9.52;;
35225;SDS011;21813;49.686;21.766;2022-08-05T04:18:04;10.48;;;9.05;;
35225;SDS011;21813;49.686;21.766;2022-08-05T04:20:33;11.70;;;9.05;;
35225;SDS011;21813;49.686;21.766;2022-08-05T04:23:02;10.48;;;8.52;;
35225;SDS011;21813;49.686;21.766;2022-08-05T04:25:48;11.93;;;8.57;;
35225;SDS011;21813;49.686;21.766;2022-08-05T04:32:18;15.27;;;8.32;;
35225;SDS011;21813;49.686;21.766;2022-08-05T04:34:44;10.45;;;8.32;;
35225;SDS011;21813;49.686;21.766;2022-08-05T04:37:13;10.77;;;8.40;;
35225;SDS011;21813;49.686;21.766;2022-08-05T04:40:04;10.80;;;8.70;;
35225;SDS011;21813;49.686;21.766;2022-08-05T04:42:31;14.23;;;8.52;;
35225;SDS011;21813;49.686;21.766;2022-08-05T04:44:56;9.40;;;8.15;;
35225;SDS011;21813;49.686;21.766;2022-08-05T04:47:23;10.93;;;8.32;;
35225;SDS011;21813;49.686;21.766;2022-08-05T04:49:49;10.73;;;8.20;;
35225;SDS011;21813;49.686;21.766;2022-08-05T04:52:15;14.77;;;8.13;;
35225;SDS011;21813;49.686;21.766;2022-08-05T04:54:41;13.30;;;8.30;;
35225;SDS011;21813;49.686;21.766;2022-08-05T04:57:07;14.60;;;8.80;;
35225;SDS011;21813;49.686;21.766;2022-08-05T04:59:33;12.73;;;8.15;;
35225;SDS011;21813;49.686;21.766;2022-08-05T05:02:02;13.50;;;8.45;;
35225;SDS011;21813;49.686;21.766;2022-08-05T05:04:29;14.57;;;7.55;;
35225;SDS011;21813;49.686;21.766;2022-08-05T05:06:55;8.73;;;7.38;;
35225;SDS011;21813;49.686;21.766;2022-08-05T05:09:21;8.32;;;7.22;;
35225;SDS011;21813;49.686;21.766;2022-08-05T05:11:46;14.55;;;7.57;;
35225;SDS011;21813;49.686;21.766;2022-08-05T05:14:12;12.82;;;7.90;;
35225;SDS011;21813;49.686;21.766;2022-08-05T05:16:39;8.07;;;7.28;;
35225;SDS011;21813;49.686;21.766;2022-08-05T05:19:04;9.32;;;6.72;;
35225;SDS011;21813;49.686;21.766;2022-08-05T05:21:30;9.57;;;6.88;;
35225;SDS011;21813;49.686;21.766;2022-08-05T05:23:57;10.30;;;6.45;;
35225;SDS011;21813;49.686;21.766;2022-08-05T05:26:22;15.32;;;6.97;;
35225;SDS011;21813;49.686;21.766;2022-08-05T05:28:48;10.95;;;6.85;;
35225;SDS011;21813;49.686;21.766;2022-08-05T05:31:17;7.65;;;6.85;;
35225;SDS011;21813;49.686;21.766;2022-08-05T05:33:42;7.55;;;6.47;;
35225;SDS011;21813;49.686;21.766;2022-08-05T05:36:08;8.60;;;6.45;;
35225;SDS011;21813;49.686;21.766;2022-08-05T05:38:35;8.93;;;6.75;;
35225;SDS011;21813;49.686;21.766;2022-08-05T05:41:01;8.05;;;6.10;;
35225;SDS011;21813;49.686;21.766;2022-08-05T05:43:26;9.45;;;6.72;;
35225;SDS011;21813;49.686;21.766;2022-08-05T05:45:54;19.67;;;7.20;;
35225;SDS011;21813;49.686;21.766;2022-08-05T05:48:19;10.00;;;5.90;;
35225;SDS011;21813;49.686;21.766;2022-08-05T05:50:45;8.25;;;5.82;;
35225;SDS011;21813;49.686;21.766;2022-08-05T05:53:12;6.57;;;5.25;;
35225;SDS011;21813;49.686;21.766;2022-08-05T05:55:40;9.57;;;5.40;;
35225;SDS011;21813;49.686;21.766;2022-08-05T05:58:08;7.75;;;5.45;;
35225;SDS011;21813;49.686;21.766;2022-08-05T06:00:34;7.60;;;6.82;;
35225;SDS011;21813;49.686;21.766;2022-08-05T06:03:00;9.57;;;5.78;;
35225;SDS011;21813;49.686;21.766;2022-08-05T06:05:27;6.20;;;5.60;;
35225;SDS011;21813;49.686;21.766;2022-08-05T06:07:55;6.72;;;5.43;;
35225;SDS011;21813;49.686;21.766;2022-08-05T06:10:21;8.82;;;5.60;;
35225;SDS011;21813;49.686;21.766;2022-08-05T06:12:47;7.50;;;5.53;;
35225;SDS011;21813;49.686;21.766;2022-08-05T06:15:13;8.60;;;5.78;;
35225;SDS011;21813;49.686;21.766;2022-08-05T06:17:39;7.35;;;5.70;;
35225;SDS011;21813;49.686;21.766;2022-08-05T06:20:05;7.18;;;5.35;;
35225;SDS011;21813;49.686;21.766;2022-08-05T06:22:32;9.48;;;5.40;;
35225;SDS011;21813;49.686;21.766;2022-08-05T06:24:59;7.53;;;5.18;;
35225;SDS011;21813;49.686;21.766;2022-08-05T06:27:26;7.97;;;5.07;;
35225;SDS011;21813;49.686;21.766;2022-08-05T06:29:52;7.10;;;5.10;;
35225;SDS011;21813;49.686;21.766;2022-08-05T06:32:18;7.70;;;5.15;;
35225;SDS011;21813;49.686;21.766;2022-08-05T06:34:44;13.32;;;5.43;;
35225;SDS011;21813;49.686;21.766;2022-08-05T06:40:13;12.63;;;5.63;;
35225;SDS011;21813;49.686;21.766;2022-08-05T06:42:41;6.60;;;5.30;;
35225;SDS011;21813;49.686;21.766;2022-08-05T06:45:07;11.65;;;5.15;;
35225;SDS011;21813;49.686;21.766;2022-08-05T06:47:33;8.25;;;5.25;;
35225;SDS011;21813;49.686;21.766;2022-08-05T06:50:02;7.20;;;5.35;;
35225;SDS011;21813;49.686;21.766;2022-08-05T06:52:28;6.97;;;4.82;;
35225;SDS011;21813;49.686;21.766;2022-08-05T06:54:53;6.10;;;4.95;;
35225;SDS011;21813;49.686;21.766;2022-08-05T06:57:21;11.07;;;5.03;;
35225;SDS011;21813;49.686;21.766;2022-08-05T06:59:47;5.22;;;4.30;;
35225;SDS011;21813;49.686;21.766;2022-08-05T07:02:14;7.45;;;4.10;;
35225;SDS011;21813;49.686;21.766;2022-08-05T07:04:56;8.02;;;4.65;;
35225;SDS011;21813;49.686;21.766;2022-08-05T07:07:25;8.65;;;4.35;;
35225;SDS011;21813;49.686;21.766;2022-08-05T07:09:51;6.32;;;4.25;;
35225;SDS011;21813;49.686;21.766;2022-08-05T07:12:17;4.72;;;4.32;;
35225;SDS011;21813;49.686;21.766;2022-08-05T07:15:05;8.02;;;4.00;;
35225;SDS011;21813;49.686;21.766;2022-08-05T07:17:50;5.97;;;4.57;;
35225;SDS011;21813;49.686;21.766;2022-08-05T07:20:30;7.45;;;4.55;;
35225;SDS011;21813;49.686;21.766;2022-08-05T07:22:58;5.55;;;4.40;;
35225;SDS011;21813;49.686;21.766;2022-08-05T07:25:23;7.53;;;4.28;;
35225;SDS011;21813;49.686;21.766;2022-08-05T07:27:50;5.65;;;4.35;;
35225;SDS011;21813;49.686;21.766;2022-08-05T07:30:28;10.35;;;3.63;;
35225;SDS011;21813;49.686;21.766;2022-08-05T07:33:03;8.18;;;3.70;;
35225;SDS011;21813;49.686;21.766;2022-08-05T07:35:51;4.72;;;3.83;;
35225;SDS011;21813;49.686;21.766;2022-08-05T07:38:29;6.13;;;4.55;;
35225;SDS011;21813;49.686;21.766;2022-08-05T07:40:56;4.50;;;3.88;;
35225;SDS011;21813;49.686;21.766;2022-08-05T07:43:36;7.18;;;4.05;;
35225;SDS011;21813;49.686;21.766;2022-08-05T07:49:02;5.80;;;4.65;;
35225;SDS011;21813;49.686;21.766;2022-08-05T07:51:36;7.28;;;3.72;;
35225;SDS011;21813;49.686;21.766;2022-08-05T07:54:04;4.43;;;4.03;;
35225;SDS011;21813;49.686;21.766;2022-08-05T07:56:31;5.68;;;4.00;;
35225;SDS011;21813;49.686;21.766;2022-08-05T07:58:56;4.35;;;3.60;;
35225;SDS011;21813;49.686;21.766;2022-08-05T08:01:23;3.88;;;3.53;;
35225;SDS011;21813;49.686;21.766;2022-08-05T08:03:52;5.60;;;3.42;;
35225;SDS011;21813;49.686;21.766;2022-08-05T08:06:23;6.65;;;3.83;;
35225;SDS011;21813;49.686;21.766;2022-08-05T08:09:20;3.40;;;3.10;;
35225;SDS011;21813;49.686;21.766;2022-08-05T08:11:51;4.10;;;3.22;;
35225;SDS011;21813;49.686;21.766;2022-08-05T08:14:19;3.92;;;3.53;;
35225;SDS011;21813;49.686;21.766;2022-08-05T08:16:51;3.35;;;3.00;;
35225;SDS011;21813;49.686;21.766;2022-08-05T08:19:37;4.38;;;2.90;;
35225;SDS011;21813;49.686;21.766;2022-08-05T08:22:06;5.72;;;2.92;;
35225;SDS011;21813;49.686;21.766;2022-08-05T08:24:33;6.15;;;2.83;;
35225;SDS011;21813;49.686;21.766;2022-08-05T08:27:08;6.32;;;2.83;;
35225;SDS011;21813;49.686;21.766;2022-08-05T08:29:34;3.65;;;3.10;;
35225;SDS011;21813;49.686;21.766;2022-08-05T08:32:00;5.40;;;2.92;;
35225;SDS011;21813;49.686;21.766;2022-08-05T08:34:28;3.28;;;2.95;;
35225;SDS011;21813;49.686;21.766;2022-08-05T08:36:54;4.70;;;2.45;;
35225;SDS011;21813;49.686;21.766;2022-08-05T08:39:20;3.47;;;2.92;;
35225;SDS011;21813;49.686;21.766;2022-08-05T08:41:49;5.28;;;2.55;;
35225;SDS011;21813;49.686;21.766;2022-08-05T08:44:19;5.00;;;2.65;;
35225;SDS011;21813;49.686;21.766;2022-08-05T08:46:46;3.03;;;2.83;;
35225;SDS011;21813;49.686;21.766;2022-08-05T08:49:14;2.65;;;2.45;;
35225;SDS011;21813;49.686;21.766;2022-08-05T08:51:45;3.00;;;2.70;;
35225;SDS011;21813;49.686;21.766;2022-08-05T08:54:13;3.13;;;2.67;;
35225;SDS011;21813;49.686;21.766;2022-08-05T08:56:40;4.68;;;2.85;;
35225;SDS011;21813;49.686;21.766;2022-08-05T08:59:06;3.03;;;2.78;;
35225;SDS011;21813;49.686;21.766;2022-08-05T09:01:32;3.28;;;2.83;;
35225;SDS011;21813;49.686;21.766;2022-08-05T09:04:01;3.88;;;2.35;;
35225;SDS011;21813;49.686;21.766;2022-08-05T09:06:30;3.17;;;2.83;;
35225;SDS011;21813;49.686;21.766;2022-08-05T09:08:59;7.18;;;2.60;;
35225;SDS011;21813;49.686;21.766;2022-08-05T09:13:53;3.90;;;2.22;;
35225;SDS011;21813;49.686;21.766;2022-08-05T09:16:19;4.28;;;2.53;;
35225;SDS011;21813;49.686;21.766;2022-08-05T09:18:46;5.07;;;2.38;;
35225;SDS011;21813;49.686;21.766;2022-08-05T09:21:12;4.30;;;2.42;;
35225;SDS011;21813;49.686;21.766;2022-08-05T09:23:44;4.65;;;2.80;;
35225;SDS011;21813;49.686;21.766;2022-08-05T09:26:11;3.17;;;2.60;;
35225;SDS011;21813;49.686;21.766;2022-08-05T09:28:43;5.63;;;2.58;;
35225;SDS011;21813;49.686;21.766;2022-08-05T09:31:13;2.75;;;2.53;;
35225;SDS011;21813;49.686;21.766;2022-08-05T09:33:49;2.55;;;2.35;;
35225;SDS011;21813;49.686;21.766;2022-08-05T09:39:15;4.00;;;2.20;;
35225;SDS011;21813;49.686;21.766;2022-08-05T09:41:54;4.28;;;2.17;;
35225;SDS011;21813;49.686;21.766;2022-08-05T09:44:39;5.65;;;2.65;;
35225;SDS011;21813;49.686;21.766;2022-08-05T09:49:51;2.50;;;2.08;;
35225;SDS011;21813;49.686;21.766;2022-08-05T09:52:33;2.20;;;2.00;;
35225;SDS011;21813;49.686;21.766;2022-08-05T10:00:03;3.13;;;2.50;;
35225;SDS011;21813;49.686;21.766;2022-08-05T10:05:08;4.25;;;2.47;;
35225;SDS011;21813;49.686;21.766;2022-08-05T10:07:44;3.10;;;2.55;;
35225;SDS011;21813;49.686;21.766;2022-08-05T10:10:44;2.97;;;2.67;;
35225;SDS011;21813;49.686;21.766;2022-08-05T10:13:11;3.42;;;2.75;;
35225;SDS011;21813;49.686;21.766;2022-08-05T10:15:52;5.40;;;2.83;;
35225;SDS011;21813;49.686;21.766;2022-08-05T10:18:18;4.05;;;2.60;;
35225;SDS011;21813;49.686;21.766;2022-08-05T10:23:19;3.20;;;2.90;;
35225;SDS011;21813;49.686;21.766;2022-08-05T10:25:47;5.82;;;2.70;;
35225;SDS011;21813;49.686;21.766;2022-08-05T10:28:13;7.05;;;2.58;;
35225;SDS011;21813;49.686;21.766;2022-08-05T10:30:41;4.45;;;2.45;;
35225;SDS011;21813;49.686;21.766;2022-08-05T10:33:07;3.20;;;2.90;;
35225;SDS011;21813;49.686;21.766;2022-08-05T10:35:36;5.07;;;2.75;;
35225;SDS011;21813;49.686;21.766;2022-08-05T10:38:04;3.83;;;2.85;;
35225;SDS011;21813;49.686;21.766;2022-08-05T10:43:17;2.90;;;2.70;;
35225;SDS011;21813;49.686;21.766;2022-08-05T10:46:01;2.90;;;2.67;;
35225;SDS011;21813;49.686;21.766;2022-08-05T10:48:38;3.40;;;2.65;;
35225;SDS011;21813;49.686;21.766;2022-08-05T10:53:34;4.70;;;2.45;;
35225;SDS011;21813;49.686;21.766;2022-08-05T10:56:24;3.50;;;2.72;;
35225;SDS011;21813;49.686;21.766;2022-08-05T11:01:17;4.97;;;2.97;;
35225;SDS011;21813;49.686;21.766;2022-08-05T11:09:47;12.13;;;3.53;;
35225;SDS011;21813;49.686;21.766;2022-08-05T11:17:33;3.42;;;3.10;;
35225;SDS011;21813;49.686;21.766;2022-08-05T11:20:03;3.63;;;3.17;;
35225;SDS011;21813;49.686;21.766;2022-08-05T11:33:26;4.60;;;3.40;;
35225;SDS011;21813;49.686;21.766;2022-08-05T11:35:54;8.55;;;6.70;;
35225;SDS011;21813;49.686;21.766;2022-08-05T11:43:57;5.18;;;3.85;;
35225;SDS011;21813;49.686;21.766;2022-08-05T11:46:35;5.18;;;3.50;;
35225;SDS011;21813;49.686;21.766;2022-08-05T11:49:05;7.43;;;3.42;;
35225;SDS011;21813;49.686;21.766;2022-08-05T11:51:32;3.97;;;3.40;;
35225;SDS011;21813;49.686;21.766;2022-08-05T11:53:59;6.28;;;3.63;;
35225;SDS011;21813;49.686;21.766;2022-08-05T11:56:41;4.30;;;3.78;;
35225;SDS011;21813;49.686;21.766;2022-08-05T11:59:11;3.90;;;3.58;;
35225;SDS011;21813;49.686;21.766;2022-08-05T12:01:54;4.10;;;3.58;;
35225;SDS011;21813;49.686;21.766;2022-08-05T12:04:24;4.63;;;3.10;;
35225;SDS011;21813;49.686;21.766;2022-08-05T12:06:52;4.35;;;2.97;;
35225;SDS011;21813;49.686;21.766;2022-08-05T12:09:20;5.15;;;3.10;;
35225;SDS011;21813;49.686;21.766;2022-08-05T12:11:50;4.00;;;3.60;;
35225;SDS011;21813;49.686;21.766;2022-08-05T12:14:17;3.83;;;3.30;;
35225;SDS011;21813;49.686;21.766;2022-08-05T12:16:43;6.72;;;4.05;;
35225;SDS011;21813;49.686;21.766;2022-08-05T12:19:14;3.90;;;3.50;;
35225;SDS011;21813;49.686;21.766;2022-08-05T12:21:48;6.20;;;3.40;;
35225;SDS011;21813;49.686;21.766;2022-08-05T12:24:18;3.72;;;3.42;;
35225;SDS011;21813;49.686;21.766;2022-08-05T12:26:46;4.00;;;3.42;;
35225;SDS011;21813;49.686;21.766;2022-08-05T12:29:14;3.50;;;3.25;;
35225;SDS011;21813;49.686;21.766;2022-08-05T12:31:44;4.90;;;3.15;;
35225;SDS011;21813;49.686;21.766;2022-08-05T12:34:12;5.55;;;3.10;;
35225;SDS011;21813;49.686;21.766;2022-08-05T12:36:38;4.20;;;3.30;;
35225;SDS011;21813;49.686;21.766;2022-08-05T12:39:09;3.63;;;3.05;;
35225;SDS011;21813;49.686;21.766;2022-08-05T12:41:36;8.50;;;3.72;;
35225;SDS011;21813;49.686;21.766;2022-08-05T12:44:04;4.07;;;3.20;;
35225;SDS011;21813;49.686;21.766;2022-08-05T12:46:32;3.42;;;3.13;;
35225;SDS011;21813;49.686;21.766;2022-08-05T12:49:06;3.20;;;3.00;;
35225;SDS011;21813;49.686;21.766;2022-08-05T12:51:43;3.85;;;3.30;;
35225;SDS011;21813;49.686;21.766;2022-08-05T12:54:24;4.05;;;3.22;;
35225;SDS011;21813;49.686;21.766;2022-08-05T12:56:59;7.95;;;3.53;;
35225;SDS011;21813;49.686;21.766;2022-08-05T12:59:31;6.45;;;3.50;;
35225;SDS011;21813;49.686;21.766;2022-08-05T13:02:03;3.78;;;3.40;;
35225;SDS011;21813;49.686;21.766;2022-08-05T13:04:31;3.28;;;2.67;;
35225;SDS011;21813;49.686;21.766;2022-08-05T13:07:00;5.93;;;3.00;;
35225;SDS011;21813;49.686;21.766;2022-08-05T13:09:28;4.82;;;3.30;;
35225;SDS011;21813;49.686;21.766;2022-08-05T13:12:05;5.32;;;3.63;;
35225;SDS011;21813;49.686;21.766;2022-08-05T13:14:34;4.05;;;3.10;;
35225;SDS011;21813;49.686;21.766;2022-08-05T13:17:01;3.88;;;3.47;;
35225;SDS011;21813;49.686;21.766;2022-08-05T13:19:31;5.97;;;3.35;;
35225;SDS011;21813;49.686;21.766;2022-08-05T13:21:59;3.85;;;3.45;;
35225;SDS011;21813;49.686;21.766;2022-08-05T13:24:25;3.35;;;2.97;;
35225;SDS011;21813;49.686;21.766;2022-08-05T13:26:51;3.33;;;2.90;;
35225;SDS011;21813;49.686;21.766;2022-08-05T13:29:17;3.40;;;2.92;;
35225;SDS011;21813;49.686;21.766;2022-08-05T13:31:44;3.38;;;3.08;;
35225;SDS011;21813;49.686;21.766;2022-08-05T13:34:10;3.90;;;3.50;;
35225;SDS011;21813;49.686;21.766;2022-08-05T13:36:38;5.28;;;2.97;;
35225;SDS011;21813;49.686;21.766;2022-08-05T13:39:04;7.53;;;3.40;;
35225;SDS011;21813;49.686;21.766;2022-08-05T13:41:31;3.60;;;3.30;;
35225;SDS011;21813;49.686;21.766;2022-08-05T13:43:58;4.85;;;3.03;;
35225;SDS011;21813;49.686;21.766;2022-08-05T13:46:24;5.75;;;3.42;;
35225;SDS011;21813;49.686;21.766;2022-08-05T13:49:08;3.83;;;2.65;;
35225;SDS011;21813;49.686;21.766;2022-08-05T13:51:35;3.75;;;2.97;;
35225;SDS011;21813;49.686;21.766;2022-08-05T13:54:00;3.10;;;2.80;;
35225;SDS011;21813;49.686;21.766;2022-08-05T13:56:26;2.97;;;2.55;;
35225;SDS011;21813;49.686;21.766;2022-08-05T13:58:52;3.25;;;2.60;;
35225;SDS011;21813;49.686;21.766;2022-08-05T14:01:19;4.05;;;3.00;;
35225;SDS011;21813;49.686;21.766;2022-08-05T14:03:45;4.85;;;2.47;;
35225;SDS011;21813;49.686;21.766;2022-08-05T14:06:33;3.17;;;2.88;;
35225;SDS011;21813;49.686;21.766;2022-08-05T14:08:58;7.20;;;2.50;;
35225;SDS011;21813;49.686;21.766;2022-08-05T14:11:24;4.10;;;3.22;;
35225;SDS011;21813;49.686;21.766;2022-08-05T14:13:51;3.63;;;2.97;;
35225;SDS011;21813;49.686;21.766;2022-08-05T14:16:17;5.30;;;3.10;;
35225;SDS011;21813;49.686;21.766;2022-08-05T14:18:43;2.95;;;2.75;;
35225;SDS011;21813;49.686;21.766;2022-08-05T14:21:10;5.43;;;3.10;;
35225;SDS011;21813;49.686;21.766;2022-08-05T14:23:36;6.05;;;2.72;;
35225;SDS011;21813;49.686;21.766;2022-08-05T14:26:01;7.00;;;3.22;;
35225;SDS011;21813;49.686;21.766;2022-08-05T14:28:28;4.15;;;2.67;;
35225;SDS011;21813;49.686;21.766;2022-08-05T14:30:58;2.60;;;2.40;;
35225;SDS011;21813;49.686;21.766;2022-08-05T14:33:24;5.13;;;3.00;;
35225;SDS011;21813;49.686;21.766;2022-08-05T14:35:53;2.95;;;2.70;;
35225;SDS011;21813;49.686;21.766;2022-08-05T14:38:19;2.70;;;2.50;;
35225;SDS011;21813;49.686;21.766;2022-08-05T14:40:45;4.13;;;2.72;;
35225;SDS011;21813;49.686;21.766;2022-08-05T14:43:13;5.57;;;2.70;;
35225;SDS011;21813;49.686;21.766;2022-08-05T14:45:40;4.68;;;2.80;;
35225;SDS011;21813;49.686;21.766;2022-08-05T14:48:06;3.40;;;2.90;;
35225;SDS011;21813;49.686;21.766;2022-08-05T14:50:34;4.70;;;2.83;;
35225;SDS011;21813;49.686;21.766;2022-08-05T14:53:00;3.45;;;3.15;;
35225;SDS011;21813;49.686;21.766;2022-08-05T14:55:26;3.13;;;2.85;;
35225;SDS011;21813;49.686;21.766;2022-08-05T14:57:55;2.60;;;2.30;;
35225;SDS011;21813;49.686;21.766;2022-08-05T15:00:21;4.10;;;3.25;;
35225;SDS011;21813;49.686;21.766;2022-08-05T15:02:48;2.80;;;2.15;;
35225;SDS011;21813;49.686;21.766;2022-08-05T15:05:14;2.60;;;2.35;;
35225;SDS011;21813;49.686;21.766;2022-08-05T15:07:39;7.03;;;2.47;;
35225;SDS011;21813;49.686;21.766;2022-08-05T15:10:06;3.38;;;2.92;;
35225;SDS011;21813;49.686;21.766;2022-08-05T15:12:34;4.10;;;2.63;;
35225;SDS011;21813;49.686;21.766;2022-08-05T15:14:59;5.60;;;2.50;;
35225;SDS011;21813;49.686;21.766;2022-08-05T15:17:25;6.93;;;2.85;;
35225;SDS011;21813;49.686;21.766;2022-08-05T15:19:52;4.88;;;2.70;;
35225;SDS011;21813;49.686;21.766;2022-08-05T15:22:18;3.63;;;2.65;;
35225;SDS011;21813;49.686;21.766;2022-08-05T15:24:44;6.55;;;2.28;;
35225;SDS011;21813;49.686;21.766;2022-08-05T15:27:10;3.33;;;2.45;;
35225;SDS011;21813;49.686;21.766;2022-08-05T15:29:36;4.32;;;2.70;;
35225;SDS011;21813;49.686;21.766;2022-08-05T15:32:01;3.67;;;2.45;;
35225;SDS011;21813;49.686;21.766;2022-08-05T15:34:29;3.33;;;2.70;;
35225;SDS011;21813;49.686;21.766;2022-08-05T15:36:54;3.65;;;2.60;;
35225;SDS011;21813;49.686;21.766;2022-08-05T15:39:20;6.05;;;2.20;;
35225;SDS011;21813;49.686;21.766;2022-08-05T15:41:47;7.35;;;2.85;;
35225;SDS011;21813;49.686;21.766;2022-08-05T15:44:12;3.15;;;2.70;;
35225;SDS011;21813;49.686;21.766;2022-08-05T15:46:38;3.08;;;2.55;;
35225;SDS011;21813;49.686;21.766;2022-08-05T15:49:05;6.13;;;2.50;;
35225;SDS011;21813;49.686;21.766;2022-08-05T15:51:30;2.50;;;2.30;;
35225;SDS011;21813;49.686;21.766;2022-08-05T15:53:56;3.00;;;2.35;;
35225;SDS011;21813;49.686;21.766;2022-08-05T15:56:23;2.47;;;2.28;;
35225;SDS011;21813;49.686;21.766;2022-08-05T15:58:48;3.63;;;2.63;;
35225;SDS011;21813;49.686;21.766;2022-08-05T16:01:14;4.18;;;2.38;;
35225;SDS011;21813;49.686;21.766;2022-08-05T16:03:42;3.08;;;2.78;;
35225;SDS011;21813;49.686;21.766;2022-08-05T16:06:08;4.32;;;2.33;;
35225;SDS011;21813;49.686;21.766;2022-08-05T16:08:34;2.60;;;2.40;;
35225;SDS011;21813;49.686;21.766;2022-08-05T16:11:01;2.80;;;2.53;;
35225;SDS011;21813;49.686;21.766;2022-08-05T16:17:14;3.20;;;2.15;;
35225;SDS011;21813;49.686;21.766;2022-08-05T16:19:40;3.53;;;2.50;;
35225;SDS011;21813;49.686;21.766;2022-08-05T16:22:07;4.78;;;2.00;;
35225;SDS011;21813;49.686;21.766;2022-08-05T16:24:34;2.58;;;1.85;;
35225;SDS011;21813;49.686;21.766;2022-08-05T16:27:01;2.47;;;1.85;;
35225;SDS011;21813;49.686;21.766;2022-08-05T16:29:28;2.42;;;1.80;;
35225;SDS011;21813;49.686;21.766;2022-08-05T16:31:55;4.15;;;1.90;;
35225;SDS011;21813;49.686;21.766;2022-08-05T16:34:23;2.10;;;1.85;;
35225;SDS011;21813;49.686;21.766;2022-08-05T16:36:50;2.03;;;1.80;;
35225;SDS011;21813;49.686;21.766;2022-08-05T16:39:16;3.17;;;2.00;;
35225;SDS011;21813;49.686;21.766;2022-08-05T16:41:43;2.13;;;1.85;;
35225;SDS011;21813;49.686;21.766;2022-08-05T16:44:09;2.83;;;2.00;;
35225;SDS011;21813;49.686;21.766;2022-08-05T16:46:37;2.92;;;1.83;;
35225;SDS011;21813;49.686;21.766;2022-08-05T16:56:51;3.67;;;1.70;;
35225;SDS011;21813;49.686;21.766;2022-08-05T16:59:18;2.30;;;1.80;;
35225;SDS011;21813;49.686;21.766;2022-08-05T17:01:43;6.18;;;2.25;;
35225;SDS011;21813;49.686;21.766;2022-08-05T17:04:09;5.00;;;2.03;;
35225;SDS011;21813;49.686;21.766;2022-08-05T17:06:36;3.83;;;1.90;;
35225;SDS011;21813;49.686;21.766;2022-08-05T17:09:03;5.53;;;2.17;;
35225;SDS011;21813;49.686;21.766;2022-08-05T17:11:28;2.38;;;1.67;;
35225;SDS011;21813;49.686;21.766;2022-08-05T17:13:56;8.65;;;2.00;;